sensor_id;sensor_type;location;lat;lon;timestamp;pressure;altitude;pressure_sealevel;temperature;humidity
7441;BME280;29616;51.950;8.572;2023-06-05T00:00:39;100582.00;;;14.12;100.00
7441;BME280;29616;51.950;8.572;2023-06-05T00:03:10;100582.81;;;14.05;100.00
7441;BME280;29616;51.950;8.572;2023-06-05T00:05:39;100576.97;;;14.00;100.00
7441;BME280;29616;51.950;8.572;2023-06-05T00:08:07;100575.09;;;14.08;100.00
7441;BME280;29616;51.950;8.572;2023-06-05T00:10:36;100581.78;;;14.06;100.00
7441;BME280;29616;51.950;8.572;2023-06-05T00:13:08;100584.44;;;13.89;100.00
7441;BME280;29616;51.950;8.572;2023-06-05T00:15:37;100571.19;;;13.85;100.00
7441;BME280;29616;51.950;8.572;2023-06-05T00:18:05;100571.50;;;13.82;100.00
7441;BME280;29616;51.950;8.572;2023-06-05T00:20:37;100575.63;;;13.78;100.00
7441;BME280;29616;51.950;8.572;2023-06-05T00:23:08;100570.81;;;13.80;100.00
7441;BME280;29616;51.950;8.572;2023-06-05T00:25:38;100568.66;;;13.66;100.00
7441;BME280;29616;51.950;8.572;2023-06-05T00:28:10;100570.06;;;13.70;100.00
7441;BME280;29616;51.950;8.572;2023-06-05T00:30:40;100572.50;;;13.73;100.00
7441;BME280;29616;51.950;8.572;2023-06-05T00:33:10;100568.16;;;13.62;100.00
7441;BME280;29616;51.950;8.572;2023-06-05T00:35:40;100563.84;;;13.60;100.00
7441;BME280;29616;51.950;8.572;2023-06-05T00:38:09;100568.91;;;13.55;100.00
7441;BME280;29616;51.950;8.572;2023-06-05T00:40:40;100563.13;;;13.58;100.00
7441;BME280;29616;51.950;8.572;2023-06-05T00:43:11;100552.56;;;13.45;100.00
7441;BME280;29616;51.950;8.572;2023-06-05T00:45:41;100569.34;;;13.42;100.00
7441;BME280;29616;51.950;8.572;2023-06-05T00:48:11;100570.72;;;13.38;100.00
7441;BME280;29616;51.950;8.572;2023-06-05T00:50:40;100555.13;;;13.21;100.00
7441;BME280;29616;51.950;8.572;2023-06-05T00:53:10;100563.84;;;13.42;100.00
7441;BME280;29616;51.950;8.572;2023-06-05T00:55:39;100568.41;;;13.33;100.00
7441;BME280;29616;51.950;8.572;2023-06-05T00:58:07;100544.25;;;13.11;100.00
7441;BME280;29616;51.950;8.572;2023-06-05T01:00:40;100561.78;;;13.18;100.00
7441;BME280;29616;51.950;8.572;2023-06-05T01:03:10;100560.59;;;13.21;100.00
7441;BME280;29616;51.950;8.572;2023-06-05T01:05:40;100560.69;;;13.11;100.00
7441;BME280;29616;51.950;8.572;2023-06-05T01:08:12;100570.81;;;13.11;100.00
7441;BME280;29616;51.950;8.572;2023-06-05T01:10:44;100559.66;;;13.12;100.00
7441;BME280;29616;51.950;8.572;2023-06-05T01:13:23;100540.53;;;13.03;100.00
7441;BME280;29616;51.950;8.572;2023-06-05T01:15:55;100563.03;;;13.06;100.00
7441;BME280;29616;51.950;8.572;2023-06-05T01:18:24;100554.41;;;13.01;100.00
7441;BME280;29616;51.950;8.572;2023-06-05T01:20:55;100559.28;;;13.07;100.00
7441;BME280;29616;51.950;8.572;2023-06-05T01:23:29;100549.31;;;13.06;100.00
7441;BME280;29616;51.950;8.572;2023-06-05T01:26:01;100531.34;;;12.94;100.00
7441;BME280;29616;51.950;8.572;2023-06-05T01:28:34;100542.50;;;12.93;100.00
7441;BME280;29616;51.950;8.572;2023-06-05T01:31:08;100533.72;;;12.89;100.00
7441;BME280;29616;51.950;8.572;2023-06-05T01:33:47;100524.91;;;12.86;100.00
7441;BME280;29616;51.950;8.572;2023-06-05T01:36:20;100533.00;;;12.87;100.00
7441;BME280;29616;51.950;8.572;2023-06-05T01:38:52;100544.47;;;12.83;100.00
7441;BME280;29616;51.950;8.572;2023-06-05T01:41:25;100522.00;;;12.69;100.00
7441;BME280;29616;51.950;8.572;2023-06-05T01:43:55;100526.50;;;12.70;100.00
7441;BME280;29616;51.950;8.572;2023-06-05T01:46:26;100526.50;;;12.53;100.00
7441;BME280;29616;51.950;8.572;2023-06-05T01:48:56;100535.72;;;12.69;100.00
7441;BME280;29616;51.950;8.572;2023-06-05T01:51:27;100542.47;;;12.75;100.00
7441;BME280;29616;51.950;8.572;2023-06-05T01:53:58;100548.91;;;12.66;100.00
7441;BME280;29616;51.950;8.572;2023-06-05T01:56:27;100549.81;;;12.57;100.00
7441;BME280;29616;51.950;8.572;2023-06-05T01:58:58;100543.25;;;12.50;100.00
7441;BME280;29616;51.950;8.572;2023-06-05T02:01:31;100548.25;;;12.54;100.00
7441;BME280;29616;51.950;8.572;2023-06-05T02:04:02;100546.13;;;12.48;100.00
7441;BME280;29616;51.950;8.572;2023-06-05T02:06:34;100539.81;;;12.48;100.00
7441;BME280;29616;51.950;8.572;2023-06-05T02:09:13;100549.28;;;12.53;100.00
7441;BME280;29616;51.950;8.572;2023-06-05T02:11:42;100549.66;;;12.41;100.00
7441;BME280;29616;51.950;8.572;2023-06-05T02:14:13;100514.47;;;12.19;100.00
7441;BME280;29616;51.950;8.572;2023-06-05T02:16:44;100544.06;;;12.33;100.00
7441;BME280;29616;51.950;8.572;2023-06-05T02:19:16;100543.84;;;12.26;100.00
7441;BME280;29616;51.950;8.572;2023-06-05T02:21:47;100528.34;;;12.35;100.00
7441;BME280;29616;51.950;8.572;2023-06-05T02:24:19;100520.66;;;12.21;100.00
7441;BME280;29616;51.950;8.572;2023-06-05T02:26:47;100530.47;;;12.13;100.00
7441;BME280;29616;51.950;8.572;2023-06-05T02:29:16;100532.88;;;12.26;100.00
7441;BME280;29616;51.950;8.572;2023-06-05T02:31:46;100524.69;;;12.16;100.00
7441;BME280;29616;51.950;8.572;2023-06-05T02:34:16;100538.16;;;12.10;100.00
7441;BME280;29616;51.950;8.572;2023-06-05T02:36:47;100547.84;;;12.04;100.00
7441;BME280;29616;51.950;8.572;2023-06-05T02:39:19;100536.47;;;11.99;100.00
7441;BME280;29616;51.950;8.572;2023-06-05T02:41:51;100525.81;;;11.96;100.00
7441;BME280;29616;51.950;8.572;2023-06-05T02:44:21;100530.53;;;12.04;100.00
7441;BME280;29616;51.950;8.572;2023-06-05T02:46:52;100522.88;;;11.80;100.00
7441;BME280;29616;51.950;8.572;2023-06-05T02:49:22;100534.75;;;11.98;100.00
7441;BME280;29616;51.950;8.572;2023-06-05T02:51:52;100532.31;;;11.95;100.00
7441;BME280;29616;51.950;8.572;2023-06-05T02:54:24;100537.47;;;11.98;100.00
7441;BME280;29616;51.950;8.572;2023-06-05T02:56:58;100521.88;;;11.81;100.00
7441;BME280;29616;51.950;8.572;2023-06-05T02:59:31;100535.84;;;11.78;100.00
7441;BME280;29616;51.950;8.572;2023-06-05T03:02:03;100536.84;;;11.87;100.00
7441;BME280;29616;51.950;8.572;2023-06-05T03:04:32;100541.44;;;11.86;100.00
7441;BME280;29616;51.950;8.572;2023-06-05T03:07:04;100521.41;;;11.86;100.00
7441;BME280;29616;51.950;8.572;2023-06-05T03:09:33;100521.53;;;11.84;100.00
7441;BME280;29616;51.950;8.572;2023-06-05T03:12:05;100526.59;;;11.79;100.00
7441;BME280;29616;51.950;8.572;2023-06-05T03:14:35;100524.91;;;11.78;100.00
7441;BME280;29616;51.950;8.572;2023-06-05T03:17:04;100518.72;;;11.76;100.00
7441;BME280;29616;51.950;8.572;2023-06-05T03:19:34;100523.47;;;11.74;100.00
7441;BME280;29616;51.950;8.572;2023-06-05T03:22:04;100526.31;;;11.82;100.00
7441;BME280;29616;51.950;8.572;2023-06-05T03:24:37;100518.38;;;11.79;100.00
7441;BME280;29616;51.950;8.572;2023-06-05T03:27:08;100522.59;;;11.74;100.00
7441;BME280;29616;51.950;8.572;2023-06-05T03:29:39;100521.88;;;11.81;100.00
7441;BME280;29616;51.950;8.572;2023-06-05T03:32:09;100515.53;;;11.81;100.00
7441;BME280;29616;51.950;8.572;2023-06-05T03:34:37;100519.97;;;11.82;100.00
7441;BME280;29616;51.950;8.572;2023-06-05T03:37:11;100513.66;;;11.72;100.00
7441;BME280;29616;51.950;8.572;2023-06-05T03:39:43;100519.16;;;11.72;100.00
7441;BME280;29616;51.950;8.572;2023-06-05T03:42:12;100519.31;;;11.70;100.00
7441;BME280;29616;51.950;8.572;2023-06-05T03:44:43;100517.13;;;11.64;100.00
7441;BME280;29616;51.950;8.572;2023-06-05T03:47:13;100520.88;;;11.63;100.00
7441;BME280;29616;51.950;8.572;2023-06-05T03:49:43;100521.59;;;11.65;100.00
7441;BME280;29616;51.950;8.572;2023-06-05T03:52:16;100516.56;;;11.70;100.00
7441;BME280;29616;51.950;8.572;2023-06-05T03:54:51;100520.84;;;11.82;100.00
7441;BME280;29616;51.950;8.572;2023-06-05T03:57:23;100512.13;;;11.96;100.00
7441;BME280;29616;51.950;8.572;2023-06-05T03:59:53;100512.69;;;12.00;100.00
7441;BME280;29616;51.950;8.572;2023-06-05T04:02:24;100512.63;;;12.09;100.00
7441;BME280;29616;51.950;8.572;2023-06-05T04:04:53;100519.50;;;12.13;100.00
7441;BME280;29616;51.950;8.572;2023-06-05T04:07:23;100518.78;;;12.21;100.00
7441;BME280;29616;51.950;8.572;2023-06-05T04:09:54;100518.22;;;12.35;100.00
7441;BME280;29616;51.950;8.572;2023-06-05T04:12:25;100519.97;;;12.36;100.00
7441;BME280;29616;51.950;8.572;2023-06-05T04:14:54;100521.38;;;12.40;100.00
7441;BME280;29616;51.950;8.572;2023-06-05T04:17:25;100527.81;;;12.49;100.00
7441;BME280;29616;51.950;8.572;2023-06-05T04:19:55;100519.75;;;12.65;100.00
7441;BME280;29616;51.950;8.572;2023-06-05T04:22:24;100517.63;;;12.59;100.00
7441;BME280;29616;51.950;8.572;2023-06-05T04:24:57;100527.19;;;12.72;100.00
7441;BME280;29616;51.950;8.572;2023-06-05T04:27:25;100521.78;;;12.81;100.00
7441;BME280;29616;51.950;8.572;2023-06-05T04:29:56;100517.63;;;12.94;100.00
7441;BME280;29616;51.950;8.572;2023-06-05T04:32:26;100529.22;;;13.06;100.00
7441;BME280;29616;51.950;8.572;2023-06-05T04:34:55;100520.63;;;13.18;100.00
7441;BME280;29616;51.950;8.572;2023-06-05T04:37:23;100522.34;;;13.19;100.00
7441;BME280;29616;51.950;8.572;2023-06-05T04:39:54;100502.34;;;13.27;100.00
7441;BME280;29616;51.950;8.572;2023-06-05T04:42:25;100527.97;;;13.35;100.00
7441;BME280;29616;51.950;8.572;2023-06-05T04:44:57;100533.97;;;13.39;100.00
7441;BME280;29616;51.950;8.572;2023-06-05T04:47:26;100531.53;;;13.36;100.00
7441;BME280;29616;51.950;8.572;2023-06-05T04:49:59;100532.66;;;13.43;100.00
7441;BME280;29616;51.950;8.572;2023-06-05T04:52:30;100535.88;;;13.39;100.00
7441;BME280;29616;51.950;8.572;2023-06-05T04:55:02;100536.75;;;13.65;100.00
7441;BME280;29616;51.950;8.572;2023-06-05T04:57:33;100541.34;;;13.90;100.00
7441;BME280;29616;51.950;8.572;2023-06-05T05:00:06;100533.84;;;14.00;100.00
7441;BME280;29616;51.950;8.572;2023-06-05T05:02:37;100532.91;;;14.17;100.00
7441;BME280;29616;51.950;8.572;2023-06-05T05:05:07;100525.88;;;14.23;100.00
7441;BME280;29616;51.950;8.572;2023-06-05T05:07:37;100525.91;;;14.31;100.00
7441;BME280;29616;51.950;8.572;2023-06-05T05:10:07;100527.78;;;14.30;100.00
7441;BME280;29616;51.950;8.572;2023-06-05T05:12:38;100536.16;;;14.63;100.00
7441;BME280;29616;51.950;8.572;2023-06-05T05:15:08;100522.41;;;14.63;100.00
7441;BME280;29616;51.950;8.572;2023-06-05T05:17:39;100539.63;;;14.73;100.00
7441;BME280;29616;51.950;8.572;2023-06-05T05:20:08;100530.00;;;14.69;100.00
7441;BME280;29616;51.950;8.572;2023-06-05T05:22:38;100538.78;;;14.96;100.00
7441;BME280;29616;51.950;8.572;2023-06-05T05:25:08;100534.84;;;15.15;100.00
7441;BME280;29616;51.950;8.572;2023-06-05T05:27:38;100550.84;;;15.44;100.00
7441;BME280;29616;51.950;8.572;2023-06-05T05:30:08;100548.28;;;15.50;100.00
7441;BME280;29616;51.950;8.572;2023-06-05T05:32:37;100556.19;;;15.69;100.00
7441;BME280;29616;51.950;8.572;2023-06-05T05:35:10;100540.78;;;16.07;100.00
7441;BME280;29616;51.950;8.572;2023-06-05T05:37:38;100557.59;;;16.28;100.00
7441;BME280;29616;51.950;8.572;2023-06-05T05:40:09;100555.28;;;16.40;100.00
7441;BME280;29616;51.950;8.572;2023-06-05T05:42:41;100549.25;;;16.45;100.00
7441;BME280;29616;51.950;8.572;2023-06-05T05:45:11;100543.28;;;16.64;100.00
7441;BME280;29616;51.950;8.572;2023-06-05T05:47:39;100544.31;;;16.93;100.00
7441;BME280;29616;51.950;8.572;2023-06-05T05:50:10;100544.63;;;17.21;100.00
7441;BME280;29616;51.950;8.572;2023-06-05T05:52:40;100553.69;;;17.30;100.00
7441;BME280;29616;51.950;8.572;2023-06-05T05:55:12;100542.31;;;17.25;100.00
7441;BME280;29616;51.950;8.572;2023-06-05T05:57:42;100550.94;;;17.67;100.00
7441;BME280;29616;51.950;8.572;2023-06-05T06:00:13;100558.16;;;17.91;100.00
7441;BME280;29616;51.950;8.572;2023-06-05T06:02:42;100547.00;;;18.13;100.00
7441;BME280;29616;51.950;8.572;2023-06-05T06:05:12;100550.72;;;18.35;100.00
7441;BME280;29616;51.950;8.572;2023-06-05T06:07:40;100557.16;;;18.71;100.00
7441;BME280;29616;51.950;8.572;2023-06-05T06:10:10;100548.91;;;18.93;100.00
7441;BME280;29616;51.950;8.572;2023-06-05T06:12:43;100555.06;;;19.52;100.00
7441;BME280;29616;51.950;8.572;2023-06-05T06:15:14;100561.53;;;19.86;100.00
7441;BME280;29616;51.950;8.572;2023-06-05T06:17:43;100558.00;;;19.99;100.00
7441;BME280;29616;51.950;8.572;2023-06-05T06:20:14;100564.38;;;19.93;100.00
7441;BME280;29616;51.950;8.572;2023-06-05T06:22:44;100528.31;;;19.93;100.00
7441;BME280;29616;51.950;8.572;2023-06-05T06:25:14;100540.03;;;20.64;100.00
7441;BME280;29616;51.950;8.572;2023-06-05T06:27:46;100560.16;;;21.26;100.00
7441;BME280;29616;51.950;8.572;2023-06-05T06:30:16;100563.81;;;21.86;100.00
7441;BME280;29616;51.950;8.572;2023-06-05T06:32:45;100561.25;;;22.04;100.00
7441;BME280;29616;51.950;8.572;2023-06-05T06:35:15;100568.97;;;22.02;100.00
7441;BME280;29616;51.950;8.572;2023-06-05T06:37:45;100554.19;;;22.08;100.00
7441;BME280;29616;51.950;8.572;2023-06-05T06:40:15;100560.72;;;22.59;100.00
7441;BME280;29616;51.950;8.572;2023-06-05T06:42:47;100559.00;;;23.03;100.00
7441;BME280;29616;51.950;8.572;2023-06-05T06:45:22;100568.47;;;23.39;100.00
7441;BME280;29616;51.950;8.572;2023-06-05T06:47:50;100570.16;;;23.47;100.00
7441;BME280;29616;51.950;8.572;2023-06-05T06:50:35;100574.16;;;23.82;100.00
7441;BME280;29616;51.950;8.572;2023-06-05T06:53:04;100576.53;;;23.54;100.00
7441;BME280;29616;51.950;8.572;2023-06-05T06:55:34;100582.88;;;22.92;100.00
7441;BME280;29616;51.950;8.572;2023-06-05T06:58:05;100571.28;;;22.95;100.00
7441;BME280;29616;51.950;8.572;2023-06-05T07:00:34;100580.31;;;22.90;100.00
7441;BME280;29616;51.950;8.572;2023-06-05T07:03:03;100585.22;;;23.33;100.00
7441;BME280;29616;51.950;8.572;2023-06-05T07:05:34;100575.31;;;23.06;100.00
7441;BME280;29616;51.950;8.572;2023-06-05T07:08:04;100576.13;;;22.68;100.00
7441;BME280;29616;51.950;8.572;2023-06-05T07:10:34;100577.84;;;22.69;100.00
7441;BME280;29616;51.950;8.572;2023-06-05T07:13:05;100585.59;;;23.49;100.00
7441;BME280;29616;51.950;8.572;2023-06-05T07:15:34;100578.59;;;23.65;99.59
7441;BME280;29616;51.950;8.572;2023-06-05T07:18:04;100581.13;;;22.98;100.00
7441;BME280;29616;51.950;8.572;2023-06-05T07:20:36;100570.00;;;23.29;100.00
7441;BME280;29616;51.950;8.572;2023-06-05T07:23:07;100571.72;;;23.92;96.90
7441;BME280;29616;51.950;8.572;2023-06-05T07:25:35;100579.53;;;24.08;100.00
7441;BME280;29616;51.950;8.572;2023-06-05T07:28:09;100576.59;;;24.83;83.24
7441;BME280;29616;51.950;8.572;2023-06-05T07:30:40;100568.00;;;25.44;76.40
7441;BME280;29616;51.950;8.572;2023-06-05T07:33:11;100575.03;;;25.64;73.73
7441;BME280;29616;51.950;8.572;2023-06-05T07:35:58;100580.88;;;25.45;72.60
7441;BME280;29616;51.950;8.572;2023-06-05T07:38:29;100572.47;;;25.33;75.29
7441;BME280;29616;51.950;8.572;2023-06-05T07:41:00;100573.84;;;25.83;72.52
7441;BME280;29616;51.950;8.572;2023-06-05T07:43:34;100577.34;;;25.79;72.30
7441;BME280;29616;51.950;8.572;2023-06-05T07:46:04;100577.81;;;25.64;75.12
7441;BME280;29616;51.950;8.572;2023-06-05T07:48:39;100574.84;;;25.89;73.79
7441;BME280;29616;51.950;8.572;2023-06-05T07:51:09;100566.59;;;26.29;73.24
7441;BME280;29616;51.950;8.572;2023-06-05T07:53:38;100569.34;;;26.06;74.35
7441;BME280;29616;51.950;8.572;2023-06-05T07:56:08;100572.53;;;26.32;74.01
7441;BME280;29616;51.950;8.572;2023-06-05T07:58:41;100568.28;;;26.53;71.31
7441;BME280;29616;51.950;8.572;2023-06-05T08:01:11;100568.84;;;26.90;70.66
7441;BME280;29616;51.950;8.572;2023-06-05T08:03:42;100572.75;;;26.89;70.59
7441;BME280;29616;51.950;8.572;2023-06-05T08:06:12;100579.19;;;26.89;67.59
7441;BME280;29616;51.950;8.572;2023-06-05T08:08:41;100574.28;;;27.08;67.98
7441;BME280;29616;51.950;8.572;2023-06-05T08:11:10;100574.06;;;27.26;66.16
7441;BME280;29616;51.950;8.572;2023-06-05T08:13:41;100574.91;;;26.98;65.96
7441;BME280;29616;51.950;8.572;2023-06-05T08:16:10;100575.84;;;27.04;65.68
7441;BME280;29616;51.950;8.572;2023-06-05T08:18:39;100573.97;;;27.21;61.80
7441;BME280;29616;51.950;8.572;2023-06-05T08:21:08;100574.25;;;26.80;63.58
7441;BME280;29616;51.950;8.572;2023-06-05T08:23:40;100566.25;;;27.00;62.85
7441;BME280;29616;51.950;8.572;2023-06-05T08:26:10;100558.72;;;26.89;62.61
7441;BME280;29616;51.950;8.572;2023-06-05T08:28:42;100563.44;;;27.00;64.10
7441;BME280;29616;51.950;8.572;2023-06-05T08:31:12;100560.31;;;27.25;64.90
7441;BME280;29616;51.950;8.572;2023-06-05T08:33:43;100550.75;;;27.26;63.50
7441;BME280;29616;51.950;8.572;2023-06-05T08:36:12;100549.22;;;27.18;62.37
7441;BME280;29616;51.950;8.572;2023-06-05T08:38:41;100536.91;;;27.47;61.82
7441;BME280;29616;51.950;8.572;2023-06-05T08:41:11;100547.97;;;27.26;61.78
7441;BME280;29616;51.950;8.572;2023-06-05T08:43:47;100551.06;;;27.86;60.51
7441;BME280;29616;51.950;8.572;2023-06-05T08:46:15;100536.88;;;28.09;56.73
7441;BME280;29616;51.950;8.572;2023-06-05T08:48:47;100537.53;;;27.66;60.31
7441;BME280;29616;51.950;8.572;2023-06-05T08:51:19;100547.91;;;27.99;56.94
7441;BME280;29616;51.950;8.572;2023-06-05T08:53:54;100543.94;;;28.11;55.36
7441;BME280;29616;51.950;8.572;2023-06-05T08:56:23;100540.53;;;28.09;54.47
7441;BME280;29616;51.950;8.572;2023-06-05T08:58:57;100549.69;;;28.38;57.55
7441;BME280;29616;51.950;8.572;2023-06-05T09:01:25;100547.91;;;28.70;56.70
7441;BME280;29616;51.950;8.572;2023-06-05T09:03:54;100548.72;;;28.88;53.30
7441;BME280;29616;51.950;8.572;2023-06-05T09:06:24;100558.38;;;28.97;52.05
7441;BME280;29616;51.950;8.572;2023-06-05T09:08:52;100546.28;;;28.74;52.74
7441;BME280;29616;51.950;8.572;2023-06-05T09:11:25;100557.22;;;28.93;49.63
7441;BME280;29616;51.950;8.572;2023-06-05T09:13:58;100537.31;;;28.77;48.63
7441;BME280;29616;51.950;8.572;2023-06-05T09:16:35;100545.81;;;28.82;49.75
7441;BME280;29616;51.950;8.572;2023-06-05T09:19:06;100555.06;;;28.40;50.86
7441;BME280;29616;51.950;8.572;2023-06-05T09:21:36;100558.53;;;28.47;50.23
7441;BME280;29616;51.950;8.572;2023-06-05T09:24:14;100546.09;;;28.43;51.33
7441;BME280;29616;51.950;8.572;2023-06-05T09:26:53;100544.66;;;28.78;52.09
7441;BME280;29616;51.950;8.572;2023-06-05T09:29:29;100540.19;;;28.82;49.91
7441;BME280;29616;51.950;8.572;2023-06-05T09:32:00;100543.59;;;28.63;52.57
7441;BME280;29616;51.950;8.572;2023-06-05T09:34:32;100547.66;;;28.72;49.90
7441;BME280;29616;51.950;8.572;2023-06-05T09:37:05;100548.22;;;28.52;50.23
7441;BME280;29616;51.950;8.572;2023-06-05T09:39:38;100545.97;;;28.54;51.45
7441;BME280;29616;51.950;8.572;2023-06-05T09:42:08;100542.81;;;28.67;51.82
7441;BME280;29616;51.950;8.572;2023-06-05T09:44:40;100547.31;;;28.30;52.16
7441;BME280;29616;51.950;8.572;2023-06-05T09:47:11;100528.28;;;28.15;53.95
7441;BME280;29616;51.950;8.572;2023-06-05T09:49:47;100538.28;;;28.28;49.65
7441;BME280;29616;51.950;8.572;2023-06-05T09:52:17;100545.03;;;28.65;49.35
7441;BME280;29616;51.950;8.572;2023-06-05T09:54:48;100540.06;;;28.72;49.84
7441;BME280;29616;51.950;8.572;2023-06-05T09:57:19;100539.50;;;28.54;50.85
7441;BME280;29616;51.950;8.572;2023-06-05T09:59:51;100534.50;;;28.77;51.82
7441;BME280;29616;51.950;8.572;2023-06-05T10:02:26;100525.53;;;28.80;50.61
7441;BME280;29616;51.950;8.572;2023-06-05T10:04:59;100535.34;;;29.00;50.54
7441;BME280;29616;51.950;8.572;2023-06-05T10:07:28;100524.00;;;28.68;48.54
7441;BME280;29616;51.950;8.572;2023-06-05T10:09:59;100530.38;;;28.25;49.45
7441;BME280;29616;51.950;8.572;2023-06-05T10:12:30;100497.19;;;28.44;49.04
7441;BME280;29616;51.950;8.572;2023-06-05T10:15:02;100519.34;;;28.78;46.75
7441;BME280;29616;51.950;8.572;2023-06-05T10:17:35;100522.91;;;28.96;48.15
7441;BME280;29616;51.950;8.572;2023-06-05T10:20:07;100527.50;;;29.23;50.36
7441;BME280;29616;51.950;8.572;2023-06-05T10:22:37;100520.31;;;29.64;50.17
7441;BME280;29616;51.950;8.572;2023-06-05T10:25:12;100523.56;;;29.03;48.89
7441;BME280;29616;51.950;8.572;2023-06-05T10:27:56;100516.06;;;28.65;50.10
7441;BME280;29616;51.950;8.572;2023-06-05T10:31:17;100501.25;;;29.44;48.56
7441;BME280;29616;51.950;8.572;2023-06-05T10:34:28;100519.34;;;29.22;48.36
7441;BME280;29616;51.950;8.572;2023-06-05T10:37:38;100513.31;;;29.40;48.33
7441;BME280;29616;51.950;8.572;2023-06-05T10:40:10;100496.69;;;29.38;48.44
7441;BME280;29616;51.950;8.572;2023-06-05T10:42:39;100491.81;;;29.87;47.42
7441;BME280;29616;51.950;8.572;2023-06-05T10:45:09;100489.53;;;29.84;45.28
7441;BME280;29616;51.950;8.572;2023-06-05T10:47:51;100500.28;;;29.92;45.12
7441;BME280;29616;51.950;8.572;2023-06-05T10:50:28;100498.28;;;29.88;42.05
7441;BME280;29616;51.950;8.572;2023-06-05T10:53:00;100495.22;;;29.63;41.46
7441;BME280;29616;51.950;8.572;2023-06-05T10:55:42;100473.47;;;29.53;41.52
7441;BME280;29616;51.950;8.572;2023-06-05T10:58:12;100492.75;;;30.45;41.74
7441;BME280;29616;51.950;8.572;2023-06-05T11:01:18;100490.75;;;29.98;41.69
7441;BME280;29616;51.950;8.572;2023-06-05T11:03:57;100494.44;;;30.41;42.52
7441;BME280;29616;51.950;8.572;2023-06-05T11:06:27;100485.31;;;30.29;41.07
7441;BME280;29616;51.950;8.572;2023-06-05T11:09:11;100498.28;;;29.29;43.09
7441;BME280;29616;51.950;8.572;2023-06-05T11:11:58;100471.13;;;30.14;43.55
7441;BME280;29616;51.950;8.572;2023-06-05T11:14:45;100479.31;;;30.57;42.71
7441;BME280;29616;51.950;8.572;2023-06-05T11:17:29;100473.47;;;29.85;42.74
7441;BME280;29616;51.950;8.572;2023-06-05T11:20:01;100484.75;;;30.27;45.03
7441;BME280;29616;51.950;8.572;2023-06-05T11:22:33;100479.03;;;30.63;45.28
7441;BME280;29616;51.950;8.572;2023-06-05T11:25:24;100473.53;;;30.94;43.27
7441;BME280;29616;51.950;8.572;2023-06-05T11:27:58;100475.94;;;30.65;43.97
7441;BME280;29616;51.950;8.572;2023-06-05T11:30:31;100464.47;;;30.30;44.67
7441;BME280;29616;51.950;8.572;2023-06-05T11:33:14;100473.66;;;30.57;43.27
7441;BME280;29616;51.950;8.572;2023-06-05T11:35:49;100458.25;;;30.28;44.65
7441;BME280;29616;51.950;8.572;2023-06-05T11:38:21;100468.09;;;30.82;44.36
7441;BME280;29616;51.950;8.572;2023-06-05T11:40:53;100473.13;;;30.65;42.35
7441;BME280;29616;51.950;8.572;2023-06-05T11:43:24;100459.47;;;30.00;43.10
7441;BME280;29616;51.950;8.572;2023-06-05T11:45:54;100472.94;;;29.56;44.27
7441;BME280;29616;51.950;8.572;2023-06-05T11:48:24;100472.59;;;28.99;45.37
7441;BME280;29616;51.950;8.572;2023-06-05T11:50:58;100472.69;;;29.63;43.84
7441;BME280;29616;51.950;8.572;2023-06-05T11:53:30;100477.25;;;30.00;44.21
7441;BME280;29616;51.950;8.572;2023-06-05T11:56:00;100473.31;;;30.01;44.60
7441;BME280;29616;51.950;8.572;2023-06-05T11:58:38;100451.41;;;30.14;43.71
7441;BME280;29616;51.950;8.572;2023-06-05T12:01:11;100476.84;;;30.29;42.93
7441;BME280;29616;51.950;8.572;2023-06-05T12:03:44;100470.19;;;30.40;40.96
7441;BME280;29616;51.950;8.572;2023-06-05T12:06:16;100462.72;;;30.24;42.34
7441;BME280;29616;51.950;8.572;2023-06-05T12:08:46;100463.44;;;30.41;41.73
7441;BME280;29616;51.950;8.572;2023-06-05T12:11:22;100447.44;;;30.56;40.94
7441;BME280;29616;51.950;8.572;2023-06-05T12:13:53;100452.00;;;30.73;40.63
7441;BME280;29616;51.950;8.572;2023-06-05T12:16:31;100460.06;;;31.16;41.30
7441;BME280;29616;51.950;8.572;2023-06-05T12:19:11;100463.44;;;31.28;39.98
7441;BME280;29616;51.950;8.572;2023-06-05T12:21:47;100453.25;;;31.12;40.09
7441;BME280;29616;51.950;8.572;2023-06-05T12:24:24;100457.56;;;31.40;39.55
7441;BME280;29616;51.950;8.572;2023-06-05T12:26:56;100459.75;;;31.07;39.51
7441;BME280;29616;51.950;8.572;2023-06-05T12:29:28;100463.19;;;31.30;38.79
7441;BME280;29616;51.950;8.572;2023-06-05T12:32:00;100451.00;;;31.04;38.51
7441;BME280;29616;51.950;8.572;2023-06-05T12:34:43;100451.25;;;30.92;37.75
7441;BME280;29616;51.950;8.572;2023-06-05T12:37:26;100448.00;;;31.46;37.39
7441;BME280;29616;51.950;8.572;2023-06-05T12:39:57;100450.06;;;30.88;38.86
7441;BME280;29616;51.950;8.572;2023-06-05T12:42:34;100441.72;;;31.18;40.32
7441;BME280;29616;51.950;8.572;2023-06-05T12:45:06;100436.63;;;31.36;39.11
7441;BME280;29616;51.950;8.572;2023-06-05T12:47:37;100437.53;;;31.46;39.50
7441;BME280;29616;51.950;8.572;2023-06-05T12:50:09;100436.97;;;31.49;37.97
7441;BME280;29616;51.950;8.572;2023-06-05T12:52:41;100445.44;;;31.69;37.99
7441;BME280;29616;51.950;8.572;2023-06-05T12:55:12;100435.84;;;31.50;37.74
7441;BME280;29616;51.950;8.572;2023-06-05T12:57:40;100441.13;;;31.11;36.76
7441;BME280;29616;51.950;8.572;2023-06-05T13:00:11;100428.16;;;31.36;35.59
7441;BME280;29616;51.950;8.572;2023-06-05T13:02:42;100405.88;;;31.44;34.91
7441;BME280;29616;51.950;8.572;2023-06-05T13:05:14;100428.16;;;31.10;34.88
7441;BME280;29616;51.950;8.572;2023-06-05T13:07:45;100421.59;;;30.90;36.13
7441;BME280;29616;51.950;8.572;2023-06-05T13:10:13;100397.66;;;31.17;37.18
7441;BME280;29616;51.950;8.572;2023-06-05T13:12:44;100414.59;;;31.83;37.69
7441;BME280;29616;51.950;8.572;2023-06-05T13:15:14;100415.44;;;32.14;36.21
7441;BME280;29616;51.950;8.572;2023-06-05T13:17:45;100408.66;;;31.95;34.30
7441;BME280;29616;51.950;8.572;2023-06-05T13:20:15;100405.06;;;31.59;33.90